Terminal Aerodrome Forecast
Issued by NWS

Home | Current Version | Previous Version | Text Only | Print | Product List | Glossary On
Versions: 1 2 3 4 5 6 7 8 9 10 11 12 13 14 15 16 17 18 19 20 21 22 23 24 25 26
216
FTUS43 KIND 291722
TAFBMG
TAF
KBMG 291722Z 2918/3018 10012KT P6SM SCT020 SCT250
      TEMPO 2918/2919 BKN020
     FM300100 08010KT P6SM BKN060
     FM300400 11010KT P6SM BKN070
     FM301000 11010KT P6SM VCSH OVC045
     FM301200 12009KT P6SM OVC040=

USA.gov is the U.S. government's official web portal to all federal, state and local government web resources and services.